Svartfoss — V2PR3 — position and weather

sailwx.info

Track history (hours):
 
Tides and Currents Weather Stations Pressure Air Temp Water Temp Dewpoint Dewpoint Depression Visibility Wind Speed Wind Dir Waves Ship Positions

Svartfoss

Last reported at 2015-Apr-21 12:33 UTC. Time now 2015-Apr-21 13:08 UTC.
Position N 52°28' E 004°40'.

Length 80 m; draft 5.3 m.

Type: Cargo ship. MMSI: 304882000.

Date/timePositionNaut miles runAvg speedWind from/ knotsBaromVisibWave heightAir tempDewpointWater temp
2015-Apr-21 12:33N 52°28' E 004°40'0 0.0
2015-Apr-21 11:34N 52°28' E 004°40'0 0.0
2015-Apr-21 10:34N 52°28' E 004°40'0 0.0
2015-Apr-21 09:33N 52°28' E 004°40'0 0.0
2015-Apr-21 08:33N 52°28' E 004°40'0 0.0
2015-Apr-21 07:33N 52°28' E 004°40'0 0.0
2015-Apr-21 06:33N 52°28' E 004°40'0 0.0
2015-Apr-21 05:33N 52°28' E 004°40'0 0.0
2015-Apr-21 04:33N 52°28' E 004°40'0 0.0
2015-Apr-21 03:33N 52°28' E 004°40'0 0.0
2015-Apr-21 02:33N 52°28' E 004°40'0 0.0
2015-Apr-21 01:34N 52°28' E 004°40'0 0.0
2015-Apr-21 00:32N 52°28' E 004°40'0 0.0
2015-Apr-20 23:33N 52°28' E 004°40'0 0.0
2015-Apr-20 22:33N 52°28' E 004°40'0 0.0
2015-Apr-20 21:32N 52°28' E 004°40'0 0.0
2015-Apr-20 20:33N 52°28' E 004°40'0 0.0
2015-Apr-20 19:34N 52°28' E 004°40'0 0.0
2015-Apr-20 18:33N 52°28' E 004°40'0 0.0
2015-Apr-20 17:34N 52°28' E 004°40'0 0.0
2015-Apr-20 16:33N 52°28' E 004°40'0 0.0
2015-Apr-20 15:34N 52°28' E 004°40'0 0.0
2015-Apr-20 14:34N 52°28' E 004°40'0 0.0
2015-Apr-20 13:33N 52°28' E 004°40'0 0.0
2015-Apr-20 12:34N 52°28' E 004°40'0 0.0
2015-Apr-20 11:34N 52°28' E 004°40'0 0.0
2015-Apr-20 10:32N 52°28' E 004°40'0 0.0
2015-Apr-20 09:34N 52°28' E 004°40'0 0.0
2015-Apr-20 08:33N 52°28' E 004°40'0 0.0
2015-Apr-20 07:33N 52°28' E 004°40'0 0.0
2015-Apr-20 06:32N 52°28' E 004°40'0 0.0
2015-Apr-20 05:34N 52°28' E 004°40'0 0.0
2015-Apr-20 04:32N 52°28' E 004°40'0 0.0
2015-Apr-20 03:33N 52°28' E 004°40'0 0.0
2015-Apr-20 02:33N 52°28' E 004°40'0 0.0
2015-Apr-20 01:33N 52°28' E 004°40'0 0.0
2015-Apr-20 00:33N 52°28' E 004°40'0 0.0
2015-Apr-19 23:33N 52°28' E 004°40'0 0.0
2015-Apr-19 22:33N 52°28' E 004°40'0 0.0
2015-Apr-19 21:33N 52°28' E 004°40'0 0.0
2015-Apr-19 20:34N 52°28' E 004°40'0 0.0
2015-Apr-19 19:34N 52°28' E 004°40'0 0.0
2015-Apr-19 18:33N 52°28' E 004°40'0 0.0
2015-Apr-19 17:34N 52°28' E 004°40'0 0.0
2015-Apr-19 16:33N 52°28' E 004°40'0 0.0
2015-Apr-19 15:33N 52°28' E 004°40'0 0.0
2015-Apr-19 14:34N 52°28' E 004°40'0 0.0
2015-Apr-19 13:33N 52°28' E 004°40'0 0.0
2015-Apr-19 12:34N 52°28' E 004°40'0 0.0
2015-Apr-19 11:33N 52°28' E 004°40'0 0.0
2015-Apr-19 10:33N 52°28' E 004°40'0 0.0
2015-Apr-19 09:33N 52°28' E 004°40'0 0.0
2015-Apr-19 08:34N 52°28' E 004°40'0 0.0
2015-Apr-19 07:34N 52°28' E 004°40'0 0.0
2015-Apr-19 06:33N 52°28' E 004°40'0 0.0
2015-Apr-19 05:33N 52°28' E 004°40'0 0.0
2015-Apr-19 04:34N 52°28' E 004°40'0 0.0
2015-Apr-19 03:33N 52°28' E 004°40'0 0.0
2015-Apr-19 02:34N 52°28' E 004°40'0 0.0
2015-Apr-19 01:33N 52°28' E 004°40'2 2.4
2015-Apr-19 00:34N 52°28' E 004°36'5 4.6
2015-Apr-18 23:34N 52°30' E 004°29'3215.9
2015-Apr-18 21:32N 53°02' E 004°32'34914.4
2015-Apr-17 21:21N 58°51' E 004°49'318 6.3
2015-Apr-15 18:32N 63°39' E 009°29'7411.9
2015-Apr-15 12:18N 64°43' E 010°54'1012.9
2015-Apr-15 11:33N 64°50' E 011°10'2 2.5
2015-Apr-15 10:33N 64°52' E 011°14'4 4.2
2015-Apr-15 09:33N 64°55' E 011°21'1312.8
2015-Apr-15 08:33N 65°03' E 011°44'1313.2
2015-Apr-15 07:33N 65°15' E 011°56'8012.5
2015-Apr-15 01:05N 66°32' E 012°57'98 7.8
2015-Apr-14 12:33N 68°07' E 013°50'0 0.0
2015-Apr-14 11:33N 68°07' E 013°50'17 5.7
2015-Apr-14 08:33N 68°14' E 014°33'0 0.0
2015-Apr-14 07:33N 68°14' E 014°33'121 5.7
2015-Apr-13 10:21N 69°34' E 018°45'8 9.4
2015-Apr-13 09:33N 69°40' E 018°58'0 0.0
2015-Apr-13 08:33N 69°40' E 018°58'0 0.0
2015-Apr-13 07:33N 69°40' E 018°58'0 0.0
2015-Apr-13 06:33N 69°40' E 018°58'0 0.0
2015-Apr-13 05:33N 69°40' E 018°58'0 0.0
2015-Apr-13 04:33N 69°40' E 018°58'0 0.0
2015-Apr-13 03:33N 69°40' E 018°58'0 0.0
2015-Apr-13 02:33N 69°40' E 018°58'0 0.0
2015-Apr-13 01:33N 69°40' E 018°58'0 0.0
2015-Apr-13 00:33N 69°40' E 018°58'0 0.0
2015-Apr-12 23:33N 69°40' E 018°58'0 0.0
2015-Apr-12 22:33N 69°40' E 018°58'0 0.0
2015-Apr-12 21:33N 69°40' E 018°58'0 0.0
2015-Apr-12 20:33N 69°40' E 018°58'0 0.0
2015-Apr-12 19:31N 69°40' E 018°58'0 0.0
2015-Apr-12 18:32N 69°40' E 018°58'0 0.0
2015-Apr-12 17:33N 69°40' E 018°58'0 0.0
2015-Apr-12 16:33N 69°40' E 018°58'0 0.0
2015-Apr-12 15:33N 69°40' E 018°58'0 0.0
2015-Apr-12 14:33N 69°40' E 018°58'2 2.0
2015-Apr-12 13:33N 69°38' E 018°57'0 0.0
2015-Apr-12 12:33N 69°38' E 018°57'0 0.0
2015-Apr-12 11:33N 69°38' E 018°57'0 0.0
2015-Apr-12 10:33N 69°38' E 018°57'0 0.5
2015-Apr-12 09:33N 69°38' E 018°57'1 1.4
2015-Apr-12 08:33N 69°39' E 018°58'0 0.0
2015-Apr-12 07:33N 69°39' E 018°58'0 0.0
2015-Apr-12 06:33N 69°39' E 018°58'0 0.0
2015-Apr-12 05:33N 69°39' E 018°58'0 0.0
2015-Apr-12 04:33N 69°39' E 018°58'0 0.0
2015-Apr-12 03:33N 69°39' E 018°58'0 0.0
2015-Apr-12 02:33N 69°39' E 018°58'0 0.0
2015-Apr-12 01:33N 69°39' E 018°58'0 0.0
2015-Apr-12 00:33N 69°39' E 018°58'0 0.0
2015-Apr-11 23:32N 69°39' E 018°58'0 0.0
2015-Apr-11 22:33N 69°39' E 018°58'0 0.0
2015-Apr-11 21:33N 69°39' E 018°58'0 0.0
2015-Apr-11 20:33N 69°39' E 018°58'0 0.0
2015-Apr-11 19:33N 69°39' E 018°58'0 0.0
2015-Apr-11 18:33N 69°39' E 018°58'0 0.0
2015-Apr-11 17:33N 69°39' E 018°58'1 1.4
2015-Apr-11 16:33N 69°41' E 019°01'  
Track history (hours):
 
Tides and Currents Weather Stations Pressure Air Temp Water Temp Dewpoint Dewpoint Depression Visibility Wind Speed Wind Dir Waves Ship Positions

Svartfoss

Last reported at 2015-Apr-21 12:33 UTC. Time now 2015-Apr-21 13:08 UTC.
Position N 52°28' E 004°40'.

Length 80 m; draft 5.3 m.

Type: Cargo ship. MMSI: 304882000.

Date/timePositionNaut miles runAvg speedWind from/ knotsBaromVisibWave heightAir tempDewpointWater temp
2015-Apr-21 12:33N 52°28' E 004°40'0 0.0
2015-Apr-21 11:34N 52°28' E 004°40'0 0.0
2015-Apr-21 10:34N 52°28' E 004°40'0 0.0
2015-Apr-21 09:33N 52°28' E 004°40'0 0.0
2015-Apr-21 08:33N 52°28' E 004°40'0 0.0
2015-Apr-21 07:33N 52°28' E 004°40'0 0.0
2015-Apr-21 06:33N 52°28' E 004°40'0 0.0
2015-Apr-21 05:33N 52°28' E 004°40'0 0.0
2015-Apr-21 04:33N 52°28' E 004°40'0 0.0
2015-Apr-21 03:33N 52°28' E 004°40'0 0.0
2015-Apr-21 02:33N 52°28' E 004°40'0 0.0
2015-Apr-21 01:34N 52°28' E 004°40'0 0.0
2015-Apr-21 00:32N 52°28' E 004°40'0 0.0
2015-Apr-20 23:33N 52°28' E 004°40'0 0.0
2015-Apr-20 22:33N 52°28' E 004°40'0 0.0
2015-Apr-20 21:32N 52°28' E 004°40'0 0.0
2015-Apr-20 20:33N 52°28' E 004°40'0 0.0
2015-Apr-20 19:34N 52°28' E 004°40'0 0.0
2015-Apr-20 18:33N 52°28' E 004°40'0 0.0
2015-Apr-20 17:34N 52°28' E 004°40'0 0.0
2015-Apr-20 16:33N 52°28' E 004°40'0 0.0
2015-Apr-20 15:34N 52°28' E 004°40'0 0.0
2015-Apr-20 14:34N 52°28' E 004°40'0 0.0
2015-Apr-20 13:33N 52°28' E 004°40'0 0.0
2015-Apr-20 12:34N 52°28' E 004°40'0 0.0
2015-Apr-20 11:34N 52°28' E 004°40'0 0.0
2015-Apr-20 10:32N 52°28' E 004°40'0 0.0
2015-Apr-20 09:34N 52°28' E 004°40'0 0.0
2015-Apr-20 08:33N 52°28' E 004°40'0 0.0
2015-Apr-20 07:33N 52°28' E 004°40'0 0.0
2015-Apr-20 06:32N 52°28' E 004°40'0 0.0
2015-Apr-20 05:34N 52°28' E 004°40'0 0.0
2015-Apr-20 04:32N 52°28' E 004°40'0 0.0
2015-Apr-20 03:33N 52°28' E 004°40'0 0.0
2015-Apr-20 02:33N 52°28' E 004°40'0 0.0
2015-Apr-20 01:33N 52°28' E 004°40'0 0.0
2015-Apr-20 00:33N 52°28' E 004°40'0 0.0
2015-Apr-19 23:33N 52°28' E 004°40'0 0.0
2015-Apr-19 22:33N 52°28' E 004°40'0 0.0
2015-Apr-19 21:33N 52°28' E 004°40'0 0.0
2015-Apr-19 20:34N 52°28' E 004°40'0 0.0
2015-Apr-19 19:34N 52°28' E 004°40'0 0.0
2015-Apr-19 18:33N 52°28' E 004°40'0 0.0
2015-Apr-19 17:34N 52°28' E 004°40'0 0.0
2015-Apr-19 16:33N 52°28' E 004°40'0 0.0
2015-Apr-19 15:33N 52°28' E 004°40'0 0.0
2015-Apr-19 14:34N 52°28' E 004°40'0 0.0
2015-Apr-19 13:33N 52°28' E 004°40'0 0.0
2015-Apr-19 12:34N 52°28' E 004°40'0 0.0
2015-Apr-19 11:33N 52°28' E 004°40'0 0.0
2015-Apr-19 10:33N 52°28' E 004°40'0 0.0
2015-Apr-19 09:33N 52°28' E 004°40'0 0.0
2015-Apr-19 08:34N 52°28' E 004°40'0 0.0
2015-Apr-19 07:34N 52°28' E 004°40'0 0.0
2015-Apr-19 06:33N 52°28' E 004°40'0 0.0
2015-Apr-19 05:33N 52°28' E 004°40'0 0.0
2015-Apr-19 04:34N 52°28' E 004°40'0 0.0
2015-Apr-19 03:33N 52°28' E 004°40'0 0.0
2015-Apr-19 02:34N 52°28' E 004°40'0 0.0
2015-Apr-19 01:33N 52°28' E 004°40'2 2.4
2015-Apr-19 00:34N 52°28' E 004°36'5 4.6
2015-Apr-18 23:34N 52°30' E 004°29'3215.9
2015-Apr-18 21:32N 53°02' E 004°32'34914.4
2015-Apr-17 21:21N 58°51' E 004°49'318 6.3
2015-Apr-15 18:32N 63°39' E 009°29'7411.9
2015-Apr-15 12:18N 64°43' E 010°54'1012.9
2015-Apr-15 11:33N 64°50' E 011°10'2 2.5
2015-Apr-15 10:33N 64°52' E 011°14'4 4.2
2015-Apr-15 09:33N 64°55' E 011°21'1312.8
2015-Apr-15 08:33N 65°03' E 011°44'1313.2
2015-Apr-15 07:33N 65°15' E 011°56'8012.5
2015-Apr-15 01:05N 66°32' E 012°57'98 7.8
2015-Apr-14 12:33N 68°07' E 013°50'0 0.0
2015-Apr-14 11:33N 68°07' E 013°50'17 5.7
2015-Apr-14 08:33N 68°14' E 014°33'0 0.0
2015-Apr-14 07:33N 68°14' E 014°33'121 5.7
2015-Apr-13 10:21N 69°34' E 018°45'8 9.4
2015-Apr-13 09:33N 69°40' E 018°58'0 0.0
2015-Apr-13 08:33N 69°40' E 018°58'0 0.0
2015-Apr-13 07:33N 69°40' E 018°58'0 0.0
2015-Apr-13 06:33N 69°40' E 018°58'0 0.0
2015-Apr-13 05:33N 69°40' E 018°58'0 0.0
2015-Apr-13 04:33N 69°40' E 018°58'0 0.0
2015-Apr-13 03:33N 69°40' E 018°58'0 0.0
2015-Apr-13 02:33N 69°40' E 018°58'0 0.0
2015-Apr-13 01:33N 69°40' E 018°58'0 0.0
2015-Apr-13 00:33N 69°40' E 018°58'0 0.0
2015-Apr-12 23:33N 69°40' E 018°58'0 0.0
2015-Apr-12 22:33N 69°40' E 018°58'0 0.0
2015-Apr-12 21:33N 69°40' E 018°58'0 0.0
2015-Apr-12 20:33N 69°40' E 018°58'0 0.0
2015-Apr-12 19:31N 69°40' E 018°58'0 0.0
2015-Apr-12 18:32N 69°40' E 018°58'0 0.0
2015-Apr-12 17:33N 69°40' E 018°58'0 0.0
2015-Apr-12 16:33N 69°40' E 018°58'0 0.0
2015-Apr-12 15:33N 69°40' E 018°58'0 0.0
2015-Apr-12 14:33N 69°40' E 018°58'2 2.0
2015-Apr-12 13:33N 69°38' E 018°57'0 0.0
2015-Apr-12 12:33N 69°38' E 018°57'0 0.0
2015-Apr-12 11:33N 69°38' E 018°57'0 0.0
2015-Apr-12 10:33N 69°38' E 018°57'0 0.5
2015-Apr-12 09:33N 69°38' E 018°57'1 1.4
2015-Apr-12 08:33N 69°39' E 018°58'0 0.0
2015-Apr-12 07:33N 69°39' E 018°58'0 0.0
2015-Apr-12 06:33N 69°39' E 018°58'0 0.0
2015-Apr-12 05:33N 69°39' E 018°58'0 0.0
2015-Apr-12 04:33N 69°39' E 018°58'0 0.0
2015-Apr-12 03:33N 69°39' E 018°58'0 0.0
2015-Apr-12 02:33N 69°39' E 018°58'0 0.0
2015-Apr-12 01:33N 69°39' E 018°58'0 0.0
2015-Apr-12 00:33N 69°39' E 018°58'0 0.0
2015-Apr-11 23:32N 69°39' E 018°58'0 0.0
2015-Apr-11 22:33N 69°39' E 018°58'0 0.0
2015-Apr-11 21:33N 69°39' E 018°58'0 0.0
2015-Apr-11 20:33N 69°39' E 018°58'0 0.0
2015-Apr-11 19:33N 69°39' E 018°58'0 0.0
2015-Apr-11 18:33N 69°39' E 018°58'0 0.0
2015-Apr-11 17:33N 69°39' E 018°58'1 1.4
2015-Apr-11 16:33N 69°41' E 019°01'  

Dump ship's entire track history